Time;durP1;ratioP1;P1;durP2;ratioP2;P2;SDS_P1;SDS_P2;PMS_P1;PMS_P2;Temp;Humidity;BMP_temperature;BMP_pressure;BME280_temperature;BME280_humidity;BME280_pressure;Samples;Min_cycle;Max_cycle;Signal;HPM_P1;HPM_P2
2022/05/15 00:01:41;;;;;;;14.43;4.45;;;;;;;14.67;64.76;102046.22;5076107;28;19958;-35
2022/05/15 00:04:07;;;;;;;;;;;;;;;14.91;62.43;102047.16;5075597;28;20036;-36
2022/05/15 00:06:33;;;;;;;17.52;5.03;;;;;;;14.59;64.67;102031.06;5075690;28;19908;-35
2022/05/15 00:08:59;;;;;;;;;;;;;;;14.84;63.88;102046.44;5075712;28;20035;-35
2022/05/15 00:11:24;;;;;;;16.33;5.13;;;;;;;14.70;64.97;102050.41;5075290;28;20007;-35
2022/05/15 00:13:50;;;;;;;19.20;5.45;;;;;;;14.53;65.31;102050.16;5075372;28;20052;-36
2022/05/15 00:16:17;;;;;;;18.70;5.60;;;;;;;14.53;65.66;102048.28;5075446;28;20045;-35
2022/05/15 00:18:43;;;;;;;17.20;4.88;;;;;;;14.34;66.30;102041.16;5075453;28;20024;-35
2022/05/15 00:21:08;;;;;;;;;;;;;;;14.58;64.02;102044.88;5075596;28;20032;-35
2022/05/15 00:23:33;;;;;;;20.67;5.85;;;;;;;14.40;65.74;102034.81;5075793;28;19916;-36
2022/05/15 00:25:59;;;;;;;13.67;4.63;;;;;;;14.47;65.67;102043.72;5075027;28;20049;-35
2022/05/15 00:28:25;;;;;;;16.05;4.43;;;;;;;14.37;65.79;102036.09;5075360;28;20715;-35
2022/05/15 00:30:51;;;;;;;17.13;5.55;;;;;;;14.37;65.97;102044.25;5075698;28;20043;-35
2022/05/15 00:33:17;;;;;;;14.50;4.70;;;;;;;14.19;66.84;102027.91;5074929;28;20033;-36
2022/05/15 00:35:43;;;;;;;12.45;4.57;;;;;;;14.21;66.80;102044.88;5074574;28;20036;-36
2022/05/15 00:38:09;;;;;;;;;;;;;;;14.32;65.04;102029.66;5075979;28;20028;-36
2022/05/15 00:40:38;;;;;;;19.10;4.93;;;;;;;14.09;67.27;102033.88;5075334;28;19977;-36
2022/05/15 00:43:04;;;;;;;12.30;4.18;;;;;;;14.08;67.20;102045.81;5074915;28;20033;-35
2022/05/15 00:45:30;;;;;;;15.32;4.90;;;;;;;14.02;67.42;102043.19;5074943;28;20115;-35
2022/05/15 00:47:55;;;;;;;;;;;;;;;14.16;65.37;102034.66;5075518;28;20115;-35
2022/05/15 00:50:25;;;;;;;15.25;4.40;;;;;;;13.99;67.14;102030.84;5074647;28;19908;-35
2022/05/15 00:52:56;;;;;;;19.08;5.72;;;;;;;13.88;67.59;102021.56;5074020;28;20035;-35
2022/05/15 00:55:24;;;;;;;15.63;5.22;;;;;;;13.87;67.91;102032.66;5073933;28;20028;-35
2022/05/15 00:57:58;;;;;;;15.77;5.25;;;;;;;13.87;68.04;102029.94;5074577;28;20036;-35
2022/05/15 01:00:26;;;;;;;14.90;4.22;;;;;;;13.86;67.73;102026.41;5074322;28;20021;-35
2022/05/15 01:02:59;;;;;;;13.80;4.82;;;;;;;13.75;68.79;102027.09;5074071;28;20033;-35
2022/05/15 01:05:25;;;;;;;15.80;5.40;;;;;;;13.67;69.12;102027.41;5073287;28;20334;-35
2022/05/15 01:07:51;;;;;;;;;;;;;;;13.78;67.80;102028.56;5074926;28;20120;-35
2022/05/15 01:10:17;;;;;;;15.60;4.95;;;;;;;13.60;69.28;102024.72;5074343;28;20300;-35
2022/05/15 01:12:43;;;;;;;15.27;5.20;;;;;;;13.56;69.45;102028.94;5073874;28;20036;-35
2022/05/15 01:15:11;;;;;;;15.13;5.07;;;;;;;13.46;69.30;102023.19;5074484;28;20052;-35
2022/05/15 01:17:36;;;;;;;17.20;5.70;;;;;;;13.52;69.56;102030.47;5074253;28;20025;-35
2022/05/15 01:20:12;;;;;;;19.63;5.97;;;;;;;13.31;69.88;102011.81;5074229;28;20111;-35
2022/05/15 01:22:37;;;;;;;16.33;4.72;;;;;;;13.44;69.87;102019.88;5073923;28;20036;-35
2022/05/15 01:25:06;;;;;;;16.33;5.60;;;;;;;13.50;69.64;102035.28;5074414;28;20154;-35
2022/05/15 01:27:33;;;;;;;13.50;4.75;;;;;;;13.51;69.43;102028.78;5073768;28;20060;-36
2022/05/15 01:29:58;;;;;;;20.48;4.93;;;;;;;13.40;70.04;102016.75;5073715;28;20029;-35
2022/05/15 01:32:23;;;;;;;20.52;5.47;;;;;;;13.44;69.65;102027.19;5073995;28;20040;-35
2022/05/15 01:34:49;;;;;;;12.10;4.32;;;;;;;13.52;69.48;102033.19;5073621;28;20029;-35
2022/05/15 01:37:15;;;;;;;15.93;4.83;;;;;;;13.47;69.76;102037.59;5074429;28;20031;-35
2022/05/15 01:39:40;;;;;;;;;;;;;;;13.64;68.50;102039.53;5074536;28;20032;-35
2022/05/15 01:42:06;;;;;;;14.30;4.80;;;;;;;13.46;69.55;102020.47;5074060;28;20023;-35
2022/05/15 01:44:32;;;;;;;17.83;5.35;;;;;;;13.43;69.71;102028.25;5073683;28;20274;-35
2022/05/15 01:46:58;;;;;;;15.27;4.80;;;;;;;13.43;70.22;102025.53;5073697;28;20036;-35
2022/05/15 01:49:23;;;;;;;16.65;5.53;;;;;;;13.36;70.03;102023.66;5073618;28;20035;-35
2022/05/15 01:51:49;;;;;;;16.20;5.25;;;;;;;13.39;70.11;102014.25;5073628;28;20046;-35
2022/05/15 01:54:15;;;;;;;16.38;4.50;;;;;;;13.40;69.81;102024.91;5072279;28;20052;-35
2022/05/15 01:56:40;;;;;;;13.57;4.88;;;;;;;13.42;69.98;102029.28;5073886;28;20512;-35
2022/05/15 01:59:08;;;;;;;18.23;4.68;;;;;;;13.43;69.60;102020.09;5073219;28;20111;-35
2022/05/15 02:01:33;;;;;;;15.38;4.30;;;;;;;13.40;69.97;102030.34;5073919;28;20116;-35
2022/05/15 02:03:59;;;;;;;16.00;4.75;;;;;;;13.45;69.61;102021.53;5073485;28;20115;-35
2022/05/15 02:06:25;;;;;;;18.63;4.93;;;;;;;13.33;69.75;102002.41;5072543;28;20492;-35
2022/05/15 02:08:50;;;;;;;15.75;4.22;;;;;;;13.39;69.55;102025.13;5073616;28;20021;-35
2022/05/15 02:11:16;;;;;;;13.83;4.20;;;;;;;13.39;69.77;102012.38;5072442;28;20070;-35
2022/05/15 02:13:41;;;;;;;17.85;4.20;;;;;;;13.40;69.68;102013.19;5073156;28;20328;-35
2022/05/15 02:16:07;;;;;;;16.23;4.80;;;;;;;13.32;69.59;101995.31;5073264;28;20102;-35
2022/05/15 02:18:32;;;;;;;17.63;5.15;;;;;;;13.29;70.17;101998.47;5072756;28;20400;-35
2022/05/15 02:20:58;;;;;;;15.77;4.72;;;;;;;13.31;70.07;102009.91;5072702;28;20040;-35
2022/05/15 02:23:23;;;;;;;13.82;4.72;;;;;;;13.34;69.74;102008.66;5072995;28;20116;-35
2022/05/15 02:25:49;;;;;;;16.77;4.82;;;;;;;13.34;70.06;102014.09;5073115;28;20024;-35
2022/05/15 02:28:15;;;;;;;13.98;4.65;;;;;;;13.31;69.91;102012.63;5072812;28;20496;-35
2022/05/15 02:30:40;;;;;;;19.90;4.72;;;;;;;13.30;70.38;102016.41;5073145;28;20338;-35
2022/05/15 02:33:06;;;;;;;18.33;5.20;;;;;;;13.18;70.25;102011.91;5072800;28;20429;-36
2022/05/15 02:35:32;;;;;;;17.25;5.53;;;;;;;13.27;70.37;102018.72;5072922;28;20373;-35
2022/05/15 02:37:58;;;;;;;17.13;5.22;;;;;;;13.18;70.84;102020.88;5072493;28;20461;-35
2022/05/15 02:40:24;;;;;;;15.98;4.60;;;;;;;13.29;70.33;102016.66;5073620;28;20066;-35
2022/05/15 02:42:51;;;;;;;15.57;4.78;;;;;;;13.32;69.95;102016.19;5073204;28;20025;-35
2022/05/15 02:45:16;;;;;;;18.08;5.07;;;;;;;13.23;70.50;102004.78;5073416;28;20021;-35
2022/05/15 02:47:42;;;;;;;13.48;4.70;;;;;;;13.21;70.47;102008.72;5072668;28;20062;-35
2022/05/15 02:52:54;;;;;;;15.77;4.45;;;;;;;13.20;70.68;102017.94;5073039;28;20063;-35
2022/05/15 02:55:21;;;;;;;13.68;4.70;;;;;;;13.09;70.67;102012.16;5072892;28;20047;-35
2022/05/15 02:57:46;;;;;;;13.00;4.43;;;;;;;13.10;71.06;102010.25;5072845;28;20115;-35
2022/05/15 03:00:13;;;;;;;14.38;4.32;;;;;;;13.19;70.45;102011.66;5072851;28;20072;-35
2022/05/15 03:02:40;;;;;;;15.35;5.20;;;;;;;13.06;71.26;102012.56;5072276;28;20409;-35
2022/05/15 03:05:06;;;;;;;15.75;5.00;;;;;;;13.01;71.22;102009.69;5072516;28;20473;-35
2022/05/15 03:07:32;;;;;;;15.43;4.82;;;;;;;12.99;71.46;102008.25;5072197;28;20103;-35
2022/05/15 03:09:57;;;;;;;18.05;5.03;;;;;;;12.91;71.80;101987.63;5072812;28;20033;-35
2022/05/15 03:12:23;;;;;;;16.80;5.07;;;;;;;12.86;71.92;101998.31;5072662;28;20032;-35
2022/05/15 03:14:48;;;;;;;16.37;5.17;;;;;;;12.81;72.14;101992.69;5072227;28;20278;-35
2022/05/15 03:17:16;;;;;;;14.57;4.63;;;;;;;12.72;72.55;102002.13;5072836;28;20294;-35
2022/05/15 03:19:43;;;;;;;19.35;5.60;;;;;;;12.58;73.24;101996.78;5075939;28;20120;-35
2022/05/15 03:22:08;;;;;;;18.25;4.93;;;;;;;12.67;73.20;101991.94;5076328;28;20025;-35
2022/05/15 03:24:33;;;;;;;16.23;4.55;;;;;;;12.76;72.73;101990.63;5076674;28;20036;-35
2022/05/15 03:26:59;;;;;;;20.30;6.30;;;;;;;12.72;73.25;101996.72;5076179;28;20051;-35
2022/05/15 03:29:24;;;;;;;17.40;5.07;;;;;;;12.77;72.40;101997.72;5076061;28;20309;-35
2022/05/15 03:31:49;;;;;;;17.73;4.90;;;;;;;12.68;73.02;102003.63;5076499;28;20548;-35
2022/05/15 03:34:16;;;;;;;20.53;5.57;;;;;;;12.63;73.17;101990.69;5075910;28;20028;-35
2022/05/15 03:36:43;;;;;;;19.42;4.85;;;;;;;12.55;73.23;101978.22;5075723;28;20104;-35
2022/05/15 03:39:10;;;;;;;13.32;4.05;;;;;;;12.60;73.20;101993.84;5075869;28;20032;-35
2022/05/15 03:41:37;;;;;;;21.50;6.32;;;;;;;12.52;73.87;101989.50;5076050;28;20403;-35
2022/05/15 03:44:03;;;;;;;21.75;6.35;;;;;;;12.49;73.64;101973.69;5075673;28;20056;-35
2022/05/15 03:46:28;;;;;;;17.08;4.65;;;;;;;12.40;73.74;101958.69;5075949;28;20097;-35
2022/05/15 03:48:54;;;;;;;16.30;4.73;;;;;;;12.51;73.93;101985.13;5075681;28;20090;-35
2022/05/15 03:51:20;;;;;;;;;;;;;;;12.66;71.99;101984.00;5076584;28;20302;-35
2022/05/15 03:53:45;;;;;;;12.68;4.43;;;;;;;12.49;73.94;101986.38;5075523;28;19959;-35
2022/05/15 03:56:11;;;;;;;17.57;4.80;;;;;;;12.56;73.70;101995.34;5075904;28;20025;-35
2022/05/15 03:58:37;;;;;;;19.58;5.57;;;;;;;12.47;73.96;101985.78;5075462;28;20032;-35
2022/05/15 04:01:04;;;;;;;15.82;4.53;;;;;;;12.49;73.14;101989.94;5075113;28;20036;-35
2022/05/15 04:03:30;;;;;;;18.30;5.10;;;;;;;12.45;74.02;101987.88;5075425;28;20028;-35
2022/05/15 04:05:55;;;;;;;15.95;5.10;;;;;;;12.49;74.10;101984.53;5075932;28;20029;-35
2022/05/15 04:08:21;;;;;;;15.32;4.90;;;;;;;12.46;74.31;101987.66;5075033;28;20027;-35
2022/05/15 04:10:46;;;;;;;14.32;4.63;;;;;;;12.41;74.42;101986.66;5075356;28;20016;-35
2022/05/15 04:13:12;;;;;;;16.83;5.53;;;;;;;12.41;74.62;101986.66;5075363;28;20114;-35
2022/05/15 04:15:37;;;;;;;21.50;5.13;;;;;;;12.41;74.54;101995.63;5074976;28;20759;-35
2022/05/15 04:18:03;;;;;;;16.05;5.05;;;;;;;12.40;74.75;101988.53;5075222;28;20051;-35
2022/05/15 04:20:29;;;;;;;16.48;4.75;;;;;;;12.43;74.16;101995.38;5074915;28;20384;-35
2022/05/15 04:22:55;;;;;;;17.83;5.10;;;;;;;12.48;74.73;102001.00;5075080;28;20042;-35
2022/05/15 04:25:21;;;;;;;13.55;4.00;;;;;;;12.50;73.06;102002.47;5075337;28;20461;-35
2022/05/15 04:27:47;;;;;;;17.50;4.75;;;;;;;12.41;74.68;101995.63;5075016;28;20089;-35
2022/05/15 04:30:16;;;;;;;17.52;5.60;;;;;;;12.42;74.88;102005.41;5074170;28;20472;-35
2022/05/15 04:32:42;;;;;;;13.50;4.63;;;;;;;12.48;75.00;102009.97;5074548;28;20523;-35
2022/05/15 04:35:08;;;;;;;15.73;5.15;;;;;;;12.46;75.01;102001.22;5075188;28;20057;-35
2022/05/15 04:37:34;;;;;;;15.30;5.50;;;;;;;12.48;75.40;101990.16;5075340;28;20028;-35
2022/05/15 04:39:59;;;;;;;16.77;5.20;;;;;;;12.55;75.15;101988.25;5074489;28;20400;-35
2022/05/15 04:42:25;;;;;;;15.52;5.18;;;;;;;12.53;75.42;101985.72;5074484;28;20029;-35
2022/05/15 04:44:50;;;;;;;19.73;5.55;;;;;;;12.57;75.46;101997.00;5074602;28;20020;-35
2022/05/15 04:47:16;;;;;;;18.67;5.35;;;;;;;12.59;75.02;101993.03;5074935;28;20029;-35
2022/05/15 04:49:42;;;;;;;18.17;5.67;;;;;;;12.54;75.38;101987.41;5074632;28;20062;-35
2022/05/15 04:52:07;;;;;;;13.30;5.15;;;;;;;12.69;75.45;101997.13;5074353;28;20028;-35
2022/05/15 04:54:33;;;;;;;13.02;6.03;;;;;;;12.65;75.97;101998.63;5074455;28;20469;-35
2022/05/15 04:56:58;;;;;;;15.60;4.67;;;;;;;12.69;75.45;101994.41;5074462;28;20385;-35
2022/05/15 04:59:24;;;;;;;17.20;6.17;;;;;;;12.77;75.45;101994.19;5074409;28;20275;-35
2022/05/15 05:01:49;;;;;;;18.08;5.40;;;;;;;12.74;75.56;101987.31;5074862;28;20029;-35
2022/05/15 05:04:14;;;;;;;16.05;5.55;;;;;;;12.79;75.41;101995.63;5072932;28;20465;-35
2022/05/15 05:06:41;;;;;;;17.43;5.63;;;;;;;12.82;75.09;101988.94;5074365;28;20138;-35
2022/05/15 05:09:07;;;;;;;16.58;5.53;;;;;;;12.98;75.15;102006.56;5073807;28;20278;-35
2022/05/15 05:11:32;;;;;;;16.98;5.35;;;;;;;13.06;75.06;102006.31;5074794;28;20033;-35
2022/05/15 05:13:57;;;;;;;18.93;6.07;;;;;;;13.08;74.92;102009.66;5074267;28;20040;-35
2022/05/15 05:16:22;;;;;;;17.03;5.57;;;;;;;13.07;74.19;101997.94;5074347;28;20035;-35
2022/05/15 05:18:49;;;;;;;17.87;5.37;;;;;;;13.12;74.56;102000.84;5074267;28;20354;-35
2022/05/15 05:21:14;;;;;;;;;;;;;;;13.32;74.06;102006.19;5075301;28;20798;-35
2022/05/15 05:23:39;;;;;;;20.97;5.20;;;;;;;13.19;74.21;101989.13;5073775;28;20007;-35
2022/05/15 05:26:05;;;;;;;17.50;5.10;;;;;;;13.31;74.22;102009.91;5074280;28;20254;-35
2022/05/15 05:28:30;;;;;;;16.25;5.40;;;;;;;13.40;73.85;102005.88;5073504;28;20029;-35
2022/05/15 05:30:56;;;;;;;18.48;6.38;;;;;;;13.37;73.63;101998.19;5073839;28;20039;-35
2022/05/15 05:33:21;;;;;;;16.13;5.75;;;;;;;13.42;74.27;101994.81;5073779;28;20017;-35
2022/05/15 05:35:47;;;;;;;16.45;5.63;;;;;;;13.52;73.80;101995.13;5073621;28;20457;-35
2022/05/15 05:38:13;;;;;;;17.27;5.80;;;;;;;13.64;73.77;101997.94;5073904;28;20025;-35
2022/05/15 05:40:38;;;;;;;19.55;6.55;;;;;;;13.80;73.29;102000.09;5073915;28;20059;-35
2022/05/15 05:43:04;;;;;;;14.82;5.80;;;;;;;13.89;72.64;102006.91;5073456;28;20042;-36
2022/05/15 05:45:30;;;;;;;16.13;6.20;;;;;;;13.89;72.72;101989.75;5073541;28;20488;-35
2022/05/15 05:47:55;;;;;;;19.95;7.13;;;;;;;13.95;72.66;101997.00;5073388;28;20267;-35
2022/05/15 05:50:23;;;;;;;17.17;6.28;;;;;;;14.02;72.84;101991.50;5073664;28;20040;-35
2022/05/15 05:52:48;;;;;;;16.52;6.32;;;;;;;14.17;71.18;101998.22;5073242;28;20024;-35
2022/05/15 05:55:15;;;;;;;;;;;;;;;14.33;71.41;102001.41;5073743;28;20031;-35
2022/05/15 05:57:41;;;;;;;19.33;7.18;;;;;;;14.31;70.25;102000.81;5073673;28;19908;-35
2022/05/15 06:00:10;;;;;;;15.30;6.00;;;;;;;14.39;71.15;102000.47;5073435;28;20028;-35
2022/05/15 06:02:36;;;;;;;18.48;6.35;;;;;;;14.52;70.46;102000.34;5073329;28;20028;-35
2022/05/15 06:05:01;;;;;;;;;;;;;;;14.70;69.70;101998.66;5073569;28;20040;-36
2022/05/15 06:07:28;;;;;;;20.93;7.37;;;;;;;14.68;70.56;102002.44;5073345;28;20384;-35
2022/05/15 06:09:54;;;;;;;14.95;6.40;;;;;;;14.82;70.20;101999.53;5073084;28;20293;-35
2022/05/15 06:12:23;;;;;;;17.83;6.80;;;;;;;14.74;69.13;101989.81;5072683;28;20028;-35
2022/05/15 06:14:49;;;;;;;13.80;6.10;;;;;;;14.92;68.88;102000.63;5073603;28;20051;-35
2022/05/15 06:17:20;;;;;;;15.50;5.82;;;;;;;14.99;68.94;102002.44;5073473;28;20032;-35
2022/05/15 06:19:45;;;;;;;16.08;6.22;;;;;;;15.05;68.33;101996.88;5073400;28;20097;-35
2022/05/15 06:22:10;;;;;;;;;;;;;;;15.21;68.56;101992.66;5073746;28;20058;-35
2022/05/15 06:24:36;;;;;;;17.20;6.07;;;;;;;15.09;68.32;101987.19;5072593;28;20327;-35
2022/05/15 06:27:03;;;;;;;17.40;6.10;;;;;;;15.26;67.66;101994.69;5073175;28;20714;-35
2022/05/15 06:29:29;;;;;;;14.10;5.72;;;;;;;15.37;68.01;102000.16;5072674;28;20309;-35
2022/05/15 06:31:54;;;;;;;13.95;5.78;;;;;;;15.40;67.44;101993.41;5071887;28;20372;-35
2022/05/15 06:34:19;;;;;;;;;;;;;;;15.47;67.89;101991.41;5072771;28;20024;-36
2022/05/15 06:36:45;;;;;;;13.95;6.20;;;;;;;15.54;67.40;101997.56;5073562;28;19913;-35
2022/05/15 06:39:10;;;;;;;;;;;;;;;15.72;67.83;101998.56;5073422;28;20024;-36
2022/05/15 06:41:37;;;;;;;13.45;6.28;;;;;;;15.84;66.85;101991.19;5073034;28;19912;-35
2022/05/15 06:44:03;;;;;;;17.85;6.32;;;;;;;15.95;66.31;101993.91;5073204;28;20037;-35
2022/05/15 06:46:28;;;;;;;;;;;;;;;16.11;66.82;101997.81;5073410;28;20430;-35
2022/05/15 06:48:54;;;;;;;16.47;6.90;;;;;;;16.14;65.74;101980.94;5072646;28;20053;-35
2022/05/15 06:51:19;;;;;;;;;;;;;;;16.33;65.83;101994.44;5073340;28;20115;-35
2022/05/15 06:53:46;;;;;;;14.65;6.30;;;;;;;16.43;66.08;101979.09;5076361;28;19919;-35
2022/05/15 06:59:16;;;;;;;12.48;6.65;;;;;;;16.59;64.28;101980.25;5034452;28;20038;-35
2022/05/15 07:01:41;;;;;;;;;;;;;;;16.75;64.79;101988.75;5034772;28;20410;-36
2022/05/15 07:04:06;;;;;;;13.47;6.37;;;;;;;16.75;63.37;101986.84;5034296;28;19960;-36
2022/05/15 07:06:32;;;;;;;;;;;;;;;16.89;64.19;101992.84;5034656;28;20127;-35
2022/05/15 07:08:57;;;;;;;13.30;6.65;;;;;;;16.88;62.50;101986.53;5034891;28;19913;-36
2022/05/15 07:11:23;;;;;;;;;;;;;;;17.04;63.51;101993.13;5035251;28;20426;-35
2022/05/15 07:13:49;;;;;;;16.75;6.63;;;;;;;16.95;63.04;101981.75;5034280;28;19925;-36
2022/05/15 07:16:14;;;;;;;;;;;;;;;17.14;64.06;101996.03;5034430;28;20065;-35
2022/05/15 07:18:39;;;;;;;13.98;6.32;;;;;;;17.18;62.22;101989.00;5033970;28;19952;-36
2022/05/15 07:21:04;;;;;;;;;;;;;;;17.25;61.31;101992.38;5034394;28;20378;-36
2022/05/15 07:23:30;;;;;;;12.23;6.25;;;;;;;17.29;61.39;101983.69;5033919;28;19913;-36
2022/05/15 07:25:55;;;;;;;;;;;;;;;17.42;62.01;101994.28;5034273;28;20421;-36
2022/05/15 07:28:21;;;;;;;11.40;5.95;;;;;;;17.49;60.42;101995.78;5033738;28;19968;-36
2022/05/15 07:30:48;;;;;;;;;;;;;;;17.59;61.78;101997.84;5069076;28;20061;-36
2022/05/15 07:33:13;;;;;;;14.23;6.13;;;;;;;17.64;60.63;101995.19;5075963;28;19998;-36
2022/05/15 07:35:38;;;;;;;;;;;;;;;17.73;61.36;101996.44;5076781;28;20418;-36
2022/05/15 07:38:04;;;;;;;22.57;5.97;;;;;;;17.82;60.30;102001.50;5076648;28;19908;-36
2022/05/15 07:40:29;;;;;;;;;;;;;;;17.95;60.73;102003.88;5076579;28;20025;-36
2022/05/15 07:42:54;;;;;;;13.60;6.67;;;;;;;18.05;59.82;101997.69;5075911;28;20344;-35
2022/05/15 07:45:20;;;;;;;;;;;;;;;18.17;59.67;102001.16;5076822;28;20262;-36
2022/05/15 07:47:46;;;;;;;14.27;5.88;;;;;;;18.21;58.36;101989.47;5075703;28;20007;-35
2022/05/15 07:50:12;;;;;;;;;;;;;;;18.33;60.14;101991.22;5076287;28;20032;-36
2022/05/15 07:52:38;;;;;;;12.85;5.78;;;;;;;18.30;57.71;101976.16;5075610;28;19997;-36
2022/05/15 07:55:08;;;;;;;11.98;5.47;;;;;;;18.53;58.45;101986.81;5076690;28;20119;-36
2022/05/15 07:57:36;;;;;;;14.50;6.07;;;;;;;18.60;57.62;101989.38;5075575;28;20048;-36
2022/05/15 08:00:06;;;;;;;11.32;6.05;;;;;;;18.76;57.68;101990.38;5075556;28;20024;-35
2022/05/15 08:02:31;;;;;;;11.13;5.25;;;;;;;18.87;56.08;101974.88;5075535;28;20036;-36
2022/05/15 08:10:24;;;;;;;11.65;5.70;;;;;;;19.06;56.18;101970.66;5075272;28;20082;-36
2022/05/15 08:12:50;;;;;;;9.93;5.18;;;;;;;19.24;55.14;101978.50;5075129;28;20056;-35
2022/05/15 08:15:15;;;;;;;;;;;;;;;19.35;56.05;101976.69;5076859;28;20070;-36
2022/05/15 08:17:40;;;;;;;12.70;6.33;;;;;;;19.39;55.11;101966.84;5075633;28;20007;-36
2022/05/15 08:25:36;;;;;;;13.98;5.93;;;;;;;19.75;53.52;101958.88;5074864;28;20433;-35
2022/05/15 08:28:01;;;;;;;;;;;;;;;19.79;53.33;101951.75;5075733;28;20021;-36
2022/05/15 08:30:27;;;;;;;9.23;5.60;;;;;;;19.74;52.24;101947.06;5074647;28;19955;-36
2022/05/15 08:32:53;;;;;;;;;;;;;;;19.92;53.69;101948.53;5075592;28;20275;-36
2022/05/15 08:35:18;;;;;;;15.75;5.85;;;;;;;19.95;51.95;101937.00;5074700;28;19935;-35
2022/05/15 08:37:44;;;;;;;;;;;;;;;20.11;53.41;101948.91;5076040;28;20354;-36
2022/05/15 08:40:10;;;;;;;12.05;5.32;;;;;;;20.21;51.37;101946.19;5075090;28;20007;-36
2022/05/15 08:42:48;;;;;;;14.40;5.55;;;;;;;20.35;52.84;101940.19;5075138;28;20469;-36
2022/05/15 08:45:17;;;;;;;13.23;5.18;;;;;;;20.45;50.85;101934.75;5075577;28;20039;-36
2022/05/15 08:47:45;;;;;;;14.23;5.60;;;;;;;20.40;49.56;101932.81;5074786;28;20109;-35
2022/05/15 08:50:20;;;;;;;9.13;4.90;;;;;;;20.57;50.08;101938.91;5075104;28;20029;-36
2022/05/15 08:52:53;;;;;;;11.55;5.05;;;;;;;20.72;51.00;101924.38;5075088;28;20035;-36
2022/05/15 08:55:34;;;;;;;11.73;5.22;;;;;;;20.85;49.84;101927.69;5074654;28;20457;-36
2022/05/15 08:58:16;;;;;;;12.23;5.10;;;;;;;20.95;48.20;101919.44;5075222;28;20040;-36
2022/05/15 09:00:46;;;;;;;12.90;5.50;;;;;;;21.06;48.04;101934.84;5074284;28;20472;-36
2022/05/15 09:03:19;;;;;;;17.00;4.82;;;;;;;21.10;46.26;101924.94;5074923;28;20032;-36
2022/05/15 09:06:04;;;;;;;16.30;4.85;;;;;;;21.21;46.02;101917.50;5074932;28;20035;-36
2022/05/15 09:09:08;;;;;;;12.70;4.72;;;;;;;21.42;44.73;101932.09;5074348;28;20024;-36
2022/05/15 09:11:52;;;;;;;11.07;4.13;;;;;;;21.50;45.76;101928.78;5074963;28;20051;-36
2022/05/15 09:14:26;;;;;;;9.85;4.05;;;;;;;21.53;44.78;101911.72;5074849;28;20098;-36
2022/05/15 09:17:14;;;;;;;10.93;4.13;;;;;;;21.83;43.79;101925.38;5073654;28;20025;-36
2022/05/15 09:19:39;;;;;;;10.93;3.95;;;;;;;21.93;43.73;101915.44;5074314;28;20404;-36
2022/05/15 09:22:05;;;;;;;10.63;4.30;;;;;;;22.02;43.48;101922.03;5073734;28;20089;-36
2022/05/15 09:24:53;;;;;;;11.27;4.13;;;;;;;22.14;43.48;101910.69;5073602;28;20033;-36
2022/05/15 09:27:22;;;;;;;11.77;4.13;;;;;;;22.01;41.59;101920.34;5073690;28;20108;-36
2022/05/15 09:30:10;;;;;;;12.05;4.15;;;;;;;22.08;42.49;101921.72;5073397;28;20033;-36
2022/05/15 09:32:41;;;;;;;12.88;4.53;;;;;;;22.07;39.11;101905.47;5072981;28;20097;-36
2022/05/15 09:35:35;;;;;;;14.68;3.83;;;;;;;22.17;39.45;101916.47;5068736;28;20029;-36
2022/05/15 09:43:32;;;;;;;;;;;;;;;22.53;39.44;101902.47;5053924;28;20063;-36
2022/05/15 09:46:06;;;;;;;10.75;3.83;;;;;;;22.70;37.09;101902.91;5053487;28;19956;-36
2022/05/15 09:48:47;;;;;;;10.27;3.83;;;;;;;22.42;37.68;101878.84;5053427;28;20477;-36
2022/05/15 09:51:12;;;;;;;12.88;4.05;;;;;;;22.39;37.40;101885.75;5053781;28;20025;-36
2022/05/15 09:53:42;;;;;;;12.43;3.95;;;;;;;22.66;37.57;101890.00;5053413;28;20032;-36
2022/05/15 09:56:13;;;;;;;9.35;3.80;;;;;;;22.63;36.86;101886.69;5054453;28;20357;-36
2022/05/15 09:58:50;;;;;;;9.15;4.20;;;;;;;22.88;37.78;101893.97;5053596;28;20029;-36
2022/05/15 10:01:28;;;;;;;11.13;4.10;;;;;;;22.93;37.53;101893.09;5053317;28;20033;-36
2022/05/15 10:03:57;;;;;;;6.78;3.35;;;;;;;22.79;37.28;101876.38;5053613;28;20048;-36
2022/05/15 10:06:25;;;;;;;19.23;5.05;;;;;;;22.52;35.57;101853.97;5053068;28;20032;-36
2022/05/15 10:09:31;;;;;;;9.70;4.10;;;;;;;22.71;35.60;101878.91;5052782;28;20025;-36
2022/05/15 10:12:07;;;;;;;9.20;3.83;;;;;;;22.68;37.30;101883.06;5031039;28;20505;-36
2022/05/15 10:14:47;;;;;;;10.80;3.55;;;;;;;22.97;38.30;101882.31;5031244;28;20054;-36
2022/05/15 10:17:14;;;;;;;8.55;3.40;;;;;;;23.26;38.26;101874.84;5030947;28;20040;-36
2022/05/15 10:19:43;;;;;;;9.20;2.85;;;;;;;23.67;36.57;101881.88;5030701;28;20168;-36
2022/05/15 10:22:31;;;;;;;14.95;2.78;;;;;;;23.66;35.13;101870.03;5030974;28;20033;-36
2022/05/15 10:25:11;;;;;;;7.85;2.85;;;;;;;23.73;35.84;101861.41;5014705;28;20029;-36
2022/05/15 10:27:41;;;;;;;8.07;2.88;;;;;;;23.90;36.23;101870.81;5029930;28;20046;-36
2022/05/15 10:30:14;;;;;;;8.88;2.67;;;;;;;24.08;35.38;101863.69;5030628;28;20033;-36
2022/05/15 10:32:45;;;;;;;11.20;3.65;;;;;;;23.97;35.01;101861.38;5030673;28;20038;-36
2022/05/15 10:35:15;;;;;;;10.43;3.53;;;;;;;24.11;35.59;101859.53;5030767;28;20064;-36
2022/05/15 10:38:28;;;;;;;11.15;3.22;;;;;;;23.96;35.49;101854.19;5031208;28;20033;-36
2022/05/15 10:41:05;;;;;;;9.18;3.20;;;;;;;24.01;34.09;101870.69;4991705;28;20042;-36
2022/05/15 10:43:40;;;;;;;9.07;2.88;;;;;;;24.03;34.80;101860.19;4991155;28;20141;-36
2022/05/15 10:46:42;;;;;;;8.73;3.38;;;;;;;23.83;34.52;101855.75;5015677;28;20038;-36
2022/05/15 10:49:26;;;;;;;8.13;2.65;;;;;;;24.23;34.07;101850.78;5030372;28;20132;-36
2022/05/15 10:52:33;;;;;;;7.47;3.08;;;;;;;24.13;34.27;101833.22;5030469;28;20494;-36
2022/05/15 10:58:54;;;;;;;6.63;2.47;;;;;;;24.52;33.81;101837.63;4991341;28;20104;-36
2022/05/15 11:01:32;;;;;;;8.27;2.50;;;;;;;24.62;32.52;101834.72;4988427;28;20065;-36
2022/05/15 11:04:07;;;;;;;4.82;1.75;;;;;;;24.84;31.33;101825.78;4991421;28;20387;-36
2022/05/15 11:06:54;;;;;;;6.60;2.30;;;;;;;25.01;31.43;101833.47;4990916;28;20069;-36
2022/05/15 11:09:25;;;;;;;9.98;2.20;;;;;;;25.04;32.03;101838.41;4990973;28;20035;-36
2022/05/15 11:12:09;;;;;;;5.05;2.22;;;;;;;25.26;31.95;101842.47;4991066;28;20039;-36
2022/05/15 11:14:53;;;;;;;10.40;2.72;;;;;;;25.25;31.59;101835.28;4989303;28;20084;-36
2022/05/15 11:17:30;;;;;;;10.52;2.60;;;;;;;24.91;29.99;101837.25;4978581;28;20051;-36
2022/05/15 11:20:02;;;;;;;9.38;2.40;;;;;;;24.81;30.52;101833.84;4971493;28;20042;-36
2022/05/15 11:22:39;;;;;;;9.88;2.55;;;;;;;24.89;31.58;101831.22;4975559;28;20037;-36
2022/05/15 11:25:33;;;;;;;7.05;2.58;;;;;;;24.98;32.34;101836.03;5000514;28;20120;-36
2022/05/15 11:28:20;;;;;;;8.63;2.70;;;;;;;24.97;30.94;101828.84;5032935;28;20091;-36
2022/05/15 11:30:48;;;;;;;6.97;2.53;;;;;;;25.10;32.52;101814.25;5040602;28;20052;-36
2022/05/15 11:33:41;;;;;;;10.15;2.92;;;;;;;25.33;31.81;101810.50;5051961;28;20112;-36
2022/05/15 11:36:33;;;;;;;8.98;2.97;;;;;;;25.33;31.15;101810.50;5052298;28;20025;-36
2022/05/15 11:39:02;;;;;;;8.57;2.50;;;;;;;25.23;31.12;101801.53;5034267;28;20128;-36
2022/05/15 11:41:37;;;;;;;7.38;2.58;;;;;;;25.03;30.58;101797.19;5036833;28;20075;-36
2022/05/15 11:44:09;;;;;;;8.15;2.80;;;;;;;25.08;30.90;101788.81;5055160;28;20111;-36
2022/05/15 11:46:46;;;;;;;5.75;2.40;;;;;;;25.25;30.78;101786.28;5064831;28;20103;-36
2022/05/15 11:49:22;;;;;;;6.25;2.50;;;;;;;25.46;31.09;101777.56;5074016;28;20407;-36
2022/05/15 11:52:19;;;;;;;8.68;2.95;;;;;;;25.81;30.76;101779.56;5076027;28;20028;-36
2022/05/15 11:54:47;;;;;;;;;;;;;;;25.92;29.87;101774.63;5008245;28;21149;-36
2022/05/15 11:57:34;;;;;;;6.20;2.58;;;;;;;26.07;30.15;101770.69;4996327;28;19936;-36
2022/05/15 12:00:00;;;;;;;;;;;;;;;26.29;30.23;101773.47;4995097;28;20061;-36
2022/05/15 12:02:28;;;;;;;8.27;2.80;;;;;;;25.90;30.41;101766.63;4994046;28;19952;-36